This is the latest recevied weather packets stored in our database for station/object KO4APQ. If no packets are shown the sender has not sent any weather packets the latest 10 day(s).
| Time | Temp. | Humidity | Pressure | Rain* | Wind** | Luminosity | Snow |
|---|---|---|---|---|---|---|---|
| 1778172211 | 22.78° C | 74% | 1010.6 hPa | 0 mm | - | 1096 W/m² | - |
| 1778171908 | 22.78° C | 70% | 1010.6 hPa | 0 mm | - | 413 W/m² | - |
| 1778171605 | 22.22° C | 73% | 1010.7 hPa | 0 mm | - | 1085 W/m² | - |
| 1778171302 | 21.67° C | 78% | 1010.7 hPa | 0 mm | - | 289 W/m² | - |
| 1778170998 | 21.67° C | 82% | 1010.6 hPa | 0 mm | - | 360 W/m² | - |
| 1778170695 | 21.67° C | 82% | 1010.8 hPa | 0 mm | - | 268 W/m² | - |
| 1778170391 | 21.67° C | 81% | 1010.7 hPa | 0 mm | - | 441 W/m² | - |
| 1778170088 | 21.11° C | 83% | 1010.9 hPa | 0 mm | - | 1103 W/m² | - |
| 1778169784 | 21.11° C | 84% | 1011.2 hPa | 0 mm | - | 1276 W/m² | - |
| 1778169480 | 21.11° C | 85% | 1011.2 hPa | 0 mm | - | 336 W/m² | - |
| 1778169176 | 21.11° C | 82% | 1011.6 hPa | 0 mm | - | 214 W/m² | - |
| 1778168873 | 21.11° C | 82% | 1011.5 hPa | 0 mm | - | 198 W/m² | - |
| 1778168570 | 21.67° C | 82% | 1011.4 hPa | 0 mm | - | 433 W/m² | - |
| 1778168267 | 21.67° C | 80% | 1011.2 hPa | 0 mm | - | 395 W/m² | - |
| 1778167963 | 21.11° C | 82% | 1011.2 hPa | 0 mm | - | 1061 W/m² | - |
| 1778167660 | 20.56° C | 82% | 1011.4 hPa | 0 mm | - | 1134 W/m² | - |
| 1778167356 | 20.56° C | 85% | 1011.4 hPa | 0 mm | - | 336 W/m² | - |
| 1778167052 | 20.56° C | 85% | 1011.4 hPa | 0 mm | - | 460 W/m² | - |
| 1778166749 | 20.56° C | 86% | 1011.5 hPa | 0 mm | - | 667 W/m² | - |
| 1778166446 | 20.56° C | 83% | 1011.4 hPa | 0 mm | - | 489 W/m² | - |
| 1778166142 | 20.56° C | 84% | 1011.5 hPa | 0 mm | - | 604 W/m² | - |
| 1778165838 | 20° C | 88% | 1011.5 hPa | 0 mm | - | 958 W/m² | - |
| 1778165535 | 20° C | 89% | 1011.6 hPa | 0 mm | - | 383 W/m² | - |
| 1778165232 | 20° C | 85% | 1011.6 hPa | 0 mm | - | 1005 W/m² | - |
| 1778164930 | 19.44° C | 91% | 1012 hPa | 0 mm | - | 881 W/m² | - |
* Rain latest hour (hover to see other rain measurements)
** Current wind speed in m/s (hover to see current wind gust speed)